CEB284 RPLL-RPVM
Flight info
| Callsign | CEB284 |
|---|---|
| Flight time | 0h 58m |
| Altitude | 27000 |
| Route | IPATA2R IPATA W25 BATAY BATAY3P |
| Aircraft | A20N/M-SDE2E3FGHIRWXY/LB1 |
Departure
| Time | 2026-05-05 13:27 |
|---|---|
| Airport | Ninoy Aquino International Airport (RPLL) |
Arrival
| Time | 2026-05-05 14:25 |
|---|---|
| Airport | Mactan Cebu International Airport (RPVM) |
| Time | Latitude | Longitude | Altitude | Speed | Heading |
|---|---|---|---|---|---|
| 2026-05-05 13:02 | 14.51857 | 121.01333 | 39 ft | 0 kts | 44° |
| 2026-05-05 13:16 | 14.51845 | 121.01320 | 39 ft | 3 kts | 44° |
| 2026-05-05 13:16 | 14.51829 | 121.01304 | 36 ft | 3 kts | 44° |
| 2026-05-05 13:17 | 14.51813 | 121.01288 | 37 ft | 3 kts | 44° |
| 2026-05-05 13:17 | 14.51798 | 121.01272 | 38 ft | 3 kts | 65° |
| 2026-05-05 13:17 | 14.51794 | 121.01250 | 39 ft | 3 kts | 106° |
| 2026-05-05 13:17 | 14.51801 | 121.01236 | 38 ft | 0 kts | 131° |
| 2026-05-05 13:20 | 14.51800 | 121.01237 | 38 ft | 1 kts | 131° |
| 2026-05-05 13:20 | 14.51764 | 121.01274 | 39 ft | 13 kts | 135° |
| 2026-05-05 13:20 | 14.51681 | 121.01358 | 36 ft | 20 kts | 135° |
| 2026-05-05 13:21 | 14.51569 | 121.01474 | 35 ft | 24 kts | 134° |
| 2026-05-05 13:21 | 14.51447 | 121.01601 | 33 ft | 26 kts | 135° |
| 2026-05-05 13:21 | 14.51317 | 121.01734 | 32 ft | 27 kts | 135° |
| 2026-05-05 13:21 | 14.51185 | 121.01871 | 32 ft | 27 kts | 134° |
| 2026-05-05 13:22 | 14.51064 | 121.01975 | 35 ft | 15 kts | 178° |
| 2026-05-05 13:22 | 14.51008 | 121.01922 | 32 ft | 15 kts | 232° |
| 2026-05-05 13:22 | 14.50935 | 121.01794 | 29 ft | 25 kts | 240° |
| 2026-05-05 13:22 | 14.50851 | 121.01646 | 41 ft | 22 kts | 238° |
| 2026-05-05 13:23 | 14.50778 | 121.01512 | 48 ft | 21 kts | 239° |
| 2026-05-05 13:23 | 14.50704 | 121.01378 | 52 ft | 23 kts | 240° |
| 2026-05-05 13:23 | 14.50620 | 121.01228 | 57 ft | 25 kts | 239° |
| 2026-05-05 13:23 | 14.50532 | 121.01070 | 57 ft | 26 kts | 239° |
| 2026-05-05 13:24 | 14.50442 | 121.00910 | 60 ft | 26 kts | 240° |
| 2026-05-05 13:24 | 14.50354 | 121.00748 | 62 ft | 26 kts | 240° |
| 2026-05-05 13:24 | 14.50263 | 121.00586 | 69 ft | 26 kts | 240° |
| 2026-05-05 13:24 | 14.50171 | 121.00424 | 72 ft | 26 kts | 239° |
| 2026-05-05 13:25 | 14.50141 | 121.00371 | 67 ft | 26 kts | 240° |
| 2026-05-05 13:25 | 14.49912 | 120.99971 | 82 ft | 13 kts | 216° |
| 2026-05-05 13:25 | 14.49877 | 120.99967 | 87 ft | 2 kts | 170° |
| 2026-05-05 13:26 | 14.49805 | 121.00008 | 86 ft | 16 kts | 128° |
| 2026-05-05 13:26 | 14.49814 | 121.00065 | 85 ft | 9 kts | 64° |
| 2026-05-05 13:26 | 14.49854 | 121.00143 | 83 ft | 23 kts | 62° |
| 2026-05-05 13:26 | 14.50063 | 121.00514 | 62 ft | 94 kts | 60° |
| 2026-05-05 13:27 | 14.50484 | 121.01267 | 58 ft | 147 kts | 60° |
| 2026-05-05 13:27 | 14.51068 | 121.02286 | 298 ft | 171 kts | 62° |
| 2026-05-05 13:27 | 14.51674 | 121.03400 | 832 ft | 184 kts | 64° |
| 2026-05-05 13:27 | 14.52290 | 121.04600 | 1308 ft | 197 kts | 64° |
| 2026-05-05 13:28 | 14.52925 | 121.05898 | 1835 ft | 206 kts | 64° |
| 2026-05-05 13:28 | 14.53579 | 121.07249 | 2229 ft | 223 kts | 64° |
| 2026-05-05 13:28 | 14.54317 | 121.08774 | 2516 ft | 252 kts | 64° |
| 2026-05-05 13:28 | 14.55169 | 121.10473 | 2908 ft | 273 kts | 62° |
| 2026-05-05 13:29 | 14.56117 | 121.12206 | 3500 ft | 275 kts | 62° |
| 2026-05-05 13:29 | 14.57035 | 121.13952 | 4246 ft | 282 kts | 65° |
| 2026-05-05 13:29 | 14.57749 | 121.15851 | 5038 ft | 286 kts | 75° |
| 2026-05-05 13:29 | 14.58193 | 121.17867 | 5881 ft | 287 kts | 82° |
| 2026-05-05 13:30 | 14.58445 | 121.19903 | 6708 ft | 289 kts | 86° |
| 2026-05-05 13:30 | 14.58539 | 121.21986 | 7648 ft | 283 kts | 89° |
| 2026-05-05 13:30 | 14.58587 | 121.23962 | 8703 ft | 277 kts | 92° |
| 2026-05-05 13:30 | 14.58164 | 121.25926 | 9426 ft | 284 kts | 114° |
| 2026-05-05 13:31 | 14.56979 | 121.27590 | 10128 ft | 291 kts | 138° |
| 2026-05-05 13:31 | 14.55325 | 121.28890 | 10518 ft | 310 kts | 142° |
| 2026-05-05 13:31 | 14.53511 | 121.30261 | 10724 ft | 332 kts | 142° |
| 2026-05-05 13:31 | 14.51606 | 121.31700 | 11131 ft | 344 kts | 142° |
| 2026-05-05 13:32 | 14.49692 | 121.33152 | 11836 ft | 345 kts | 142° |
| 2026-05-05 13:32 | 14.47739 | 121.34643 | 12512 ft | 349 kts | 142° |
| 2026-05-05 13:32 | 14.45795 | 121.36132 | 13141 ft | 353 kts | 142° |
| 2026-05-05 13:32 | 14.43798 | 121.37662 | 13780 ft | 356 kts | 142° |
| 2026-05-05 13:33 | 14.41793 | 121.39201 | 14328 ft | 360 kts | 142° |
| 2026-05-05 13:33 | 14.39784 | 121.40742 | 14885 ft | 363 kts | 142° |
| 2026-05-05 13:33 | 14.39092 | 121.41272 | 15071 ft | 365 kts | 142° |
| 2026-05-05 13:33 | 14.36360 | 121.43366 | 15813 ft | 368 kts | 142° |
| 2026-05-05 13:34 | 14.29411 | 121.48690 | 17522 ft | 378 kts | 143° |
| 2026-05-05 13:34 | 14.27281 | 121.50320 | 18009 ft | 382 kts | 143° |
| 2026-05-05 13:35 | 14.25154 | 121.51944 | 18463 ft | 384 kts | 143° |
| 2026-05-05 13:35 | 14.22988 | 121.53595 | 18908 ft | 386 kts | 143° |
| 2026-05-05 13:35 | 14.20806 | 121.55256 | 19347 ft | 388 kts | 143° |
| 2026-05-05 13:35 | 14.18608 | 121.56930 | 19766 ft | 391 kts | 143° |
| 2026-05-05 13:36 | 14.16424 | 121.58594 | 20212 ft | 393 kts | 143° |
| 2026-05-05 13:36 | 14.14213 | 121.60279 | 20619 ft | 396 kts | 143° |
| 2026-05-05 13:36 | 14.11983 | 121.61976 | 21031 ft | 399 kts | 144° |
| 2026-05-05 13:36 | 14.09748 | 121.63678 | 21440 ft | 401 kts | 144° |
| 2026-05-05 13:37 | 14.07483 | 121.65404 | 21845 ft | 404 kts | 144° |
| 2026-05-05 13:37 | 14.05209 | 121.67140 | 22258 ft | 407 kts | 144° |
| 2026-05-05 13:37 | 14.02927 | 121.68882 | 22644 ft | 410 kts | 144° |
| 2026-05-05 13:37 | 14.00620 | 121.70644 | 23040 ft | 413 kts | 144° |
| 2026-05-05 13:38 | 13.99150 | 121.71765 | 23274 ft | 414 kts | 144° |
| 2026-05-05 13:38 | 13.96826 | 121.73537 | 23646 ft | 417 kts | 144° |
| 2026-05-05 13:38 | 13.94475 | 121.75329 | 23982 ft | 419 kts | 144° |
| 2026-05-05 13:38 | 13.92141 | 121.77108 | 24322 ft | 421 kts | 144° |
| 2026-05-05 13:39 | 13.91340 | 121.77718 | 24434 ft | 421 kts | 144° |
| 2026-05-05 13:40 | 13.77988 | 121.87832 | 26173 ft | 433 kts | 144° |
| 2026-05-05 13:40 | 13.75523 | 121.89691 | 26475 ft | 435 kts | 144° |
| 2026-05-05 13:40 | 13.73097 | 121.91520 | 26744 ft | 437 kts | 144° |
| 2026-05-05 13:41 | 13.70625 | 121.93384 | 26875 ft | 440 kts | 144° |
| 2026-05-05 13:41 | 13.68151 | 121.95250 | 26941 ft | 440 kts | 144° |
| 2026-05-05 13:41 | 13.65696 | 121.97101 | 26943 ft | 440 kts | 144° |
| 2026-05-05 13:41 | 13.63239 | 121.98953 | 26941 ft | 440 kts | 144° |
| 2026-05-05 13:42 | 13.60768 | 122.00815 | 26942 ft | 440 kts | 144° |
| 2026-05-05 13:42 | 13.58280 | 122.02689 | 26944 ft | 440 kts | 144° |
| 2026-05-05 13:42 | 13.55811 | 122.04548 | 26944 ft | 440 kts | 144° |
| 2026-05-05 13:42 | 13.53330 | 122.06416 | 26945 ft | 440 kts | 144° |
| 2026-05-05 13:43 | 13.50886 | 122.08255 | 26944 ft | 441 kts | 144° |
| 2026-05-05 13:43 | 13.48395 | 122.10130 | 26942 ft | 440 kts | 144° |
| 2026-05-05 13:43 | 13.45926 | 122.11987 | 26939 ft | 441 kts | 144° |
| 2026-05-05 13:43 | 13.43447 | 122.13851 | 26941 ft | 441 kts | 144° |
| 2026-05-05 13:44 | 13.40987 | 122.15700 | 26942 ft | 441 kts | 144° |
| 2026-05-05 13:44 | 13.38492 | 122.17575 | 26943 ft | 440 kts | 144° |
| 2026-05-05 13:44 | 13.36026 | 122.19428 | 26943 ft | 440 kts | 144° |
| 2026-05-05 13:44 | 13.33571 | 122.21272 | 26943 ft | 440 kts | 144° |
| 2026-05-05 13:45 | 13.31093 | 122.23133 | 26943 ft | 432 kts | 144° |
| 2026-05-05 13:45 | 13.28711 | 122.24922 | 26945 ft | 429 kts | 144° |
| 2026-05-05 13:45 | 13.26259 | 122.26762 | 26943 ft | 439 kts | 144° |
| 2026-05-05 13:45 | 13.23799 | 122.28607 | 26941 ft | 441 kts | 144° |
| 2026-05-05 13:46 | 13.21321 | 122.30466 | 26941 ft | 439 kts | 144° |
| 2026-05-05 13:46 | 13.18840 | 122.32327 | 26940 ft | 439 kts | 144° |
| 2026-05-05 13:46 | 13.16379 | 122.34172 | 26941 ft | 439 kts | 144° |
| 2026-05-05 13:46 | 13.13929 | 122.36010 | 26941 ft | 439 kts | 144° |
| 2026-05-05 13:47 | 13.11446 | 122.37870 | 26941 ft | 439 kts | 144° |
| 2026-05-05 13:47 | 13.08970 | 122.39726 | 26938 ft | 439 kts | 144° |
| 2026-05-05 13:47 | 13.06496 | 122.41579 | 26938 ft | 439 kts | 144° |
| 2026-05-05 13:47 | 13.04059 | 122.43404 | 26937 ft | 438 kts | 144° |
| 2026-05-05 13:48 | 13.01595 | 122.45249 | 26935 ft | 438 kts | 144° |
| 2026-05-05 13:48 | 12.99128 | 122.47096 | 26936 ft | 438 kts | 144° |
| 2026-05-05 13:48 | 12.96666 | 122.48938 | 26936 ft | 438 kts | 144° |
| 2026-05-05 13:48 | 12.94191 | 122.50790 | 26935 ft | 438 kts | 144° |
| 2026-05-05 13:49 | 12.91733 | 122.52627 | 26936 ft | 438 kts | 144° |
| 2026-05-05 13:49 | 12.89286 | 122.54457 | 26935 ft | 438 kts | 144° |
| 2026-05-05 13:49 | 12.87642 | 122.55686 | 26937 ft | 438 kts | 144° |
| 2026-05-05 13:49 | 12.84358 | 122.58141 | 26936 ft | 437 kts | 144° |
| 2026-05-05 13:50 | 12.82685 | 122.59392 | 26936 ft | 437 kts | 144° |
| 2026-05-05 13:50 | 12.80249 | 122.61211 | 26937 ft | 437 kts | 144° |
| 2026-05-05 13:50 | 12.77770 | 122.63064 | 26936 ft | 437 kts | 144° |
| 2026-05-05 13:50 | 12.75332 | 122.64884 | 26933 ft | 437 kts | 144° |
| 2026-05-05 13:51 | 12.72878 | 122.66716 | 26935 ft | 437 kts | 144° |
| 2026-05-05 13:51 | 12.70405 | 122.68562 | 26934 ft | 437 kts | 144° |
| 2026-05-05 13:51 | 12.67936 | 122.70405 | 26934 ft | 436 kts | 144° |
| 2026-05-05 13:51 | 12.65500 | 122.72222 | 26934 ft | 436 kts | 144° |
| 2026-05-05 13:52 | 12.63032 | 122.74063 | 26936 ft | 435 kts | 144° |
| 2026-05-05 13:52 | 12.60605 | 122.75872 | 26934 ft | 436 kts | 144° |
| 2026-05-05 13:52 | 12.57347 | 122.78301 | 26934 ft | 436 kts | 144° |
| 2026-05-05 13:52 | 12.55685 | 122.79540 | 26933 ft | 435 kts | 144° |
| 2026-05-05 13:53 | 12.53265 | 122.81344 | 26932 ft | 435 kts | 144° |
| 2026-05-05 13:53 | 12.50797 | 122.83182 | 26933 ft | 436 kts | 144° |
| 2026-05-05 13:53 | 12.48328 | 122.85021 | 26934 ft | 437 kts | 144° |
| 2026-05-05 13:53 | 12.45906 | 122.86824 | 26932 ft | 436 kts | 144° |
| 2026-05-05 13:54 | 12.43435 | 122.88663 | 26934 ft | 436 kts | 144° |
| 2026-05-05 13:54 | 12.40966 | 122.90501 | 26934 ft | 436 kts | 144° |
| 2026-05-05 13:54 | 12.38519 | 122.92322 | 26932 ft | 437 kts | 144° |
| 2026-05-05 13:54 | 12.36052 | 122.94157 | 26933 ft | 437 kts | 144° |
| 2026-05-05 13:55 | 12.33589 | 122.95989 | 26934 ft | 437 kts | 144° |
| 2026-05-05 13:55 | 12.31130 | 122.97818 | 26927 ft | 437 kts | 144° |
| 2026-05-05 13:55 | 12.28680 | 122.99639 | 26926 ft | 437 kts | 144° |
| 2026-05-05 13:55 | 12.26231 | 123.01459 | 26929 ft | 437 kts | 144° |
| 2026-05-05 13:56 | 12.23776 | 123.03283 | 26930 ft | 437 kts | 144° |
| 2026-05-05 13:56 | 12.21315 | 123.05111 | 26932 ft | 437 kts | 144° |
| 2026-05-05 13:56 | 12.18858 | 123.06936 | 26933 ft | 437 kts | 144° |
| 2026-05-05 13:56 | 12.16407 | 123.08756 | 26930 ft | 437 kts | 144° |
| 2026-05-05 13:57 | 12.13945 | 123.10584 | 26930 ft | 436 kts | 144° |
| 2026-05-05 13:57 | 12.11456 | 123.12431 | 26932 ft | 436 kts | 144° |
| 2026-05-05 13:57 | 12.09027 | 123.14233 | 26931 ft | 436 kts | 144° |
| 2026-05-05 13:57 | 12.06564 | 123.16060 | 26930 ft | 436 kts | 144° |
| 2026-05-05 13:58 | 12.04097 | 123.17890 | 26927 ft | 436 kts | 144° |
| 2026-05-05 13:58 | 12.01631 | 123.19718 | 26927 ft | 437 kts | 144° |
| 2026-05-05 13:58 | 11.99172 | 123.21541 | 26926 ft | 436 kts | 144° |
| 2026-05-05 13:58 | 11.96725 | 123.23355 | 26930 ft | 436 kts | 144° |
| 2026-05-05 13:59 | 11.91806 | 123.26999 | 26928 ft | 436 kts | 144° |
| 2026-05-05 13:59 | 11.89365 | 123.28807 | 26928 ft | 436 kts | 144° |
| 2026-05-05 14:00 | 11.84430 | 123.32461 | 26925 ft | 436 kts | 144° |
| 2026-05-05 14:00 | 11.81959 | 123.34290 | 26925 ft | 436 kts | 144° |
| 2026-05-05 14:00 | 11.79525 | 123.36090 | 26924 ft | 435 kts | 144° |
| 2026-05-05 14:00 | 11.77023 | 123.37942 | 26926 ft | 436 kts | 144° |
| 2026-05-05 14:01 | 11.74587 | 123.39743 | 26927 ft | 436 kts | 144° |
| 2026-05-05 14:01 | 11.72127 | 123.41562 | 26928 ft | 436 kts | 144° |
| 2026-05-05 14:01 | 11.69668 | 123.43380 | 26923 ft | 436 kts | 144° |
| 2026-05-05 14:01 | 11.67228 | 123.45184 | 26923 ft | 436 kts | 144° |
| 2026-05-05 14:02 | 11.64768 | 123.47002 | 26929 ft | 436 kts | 144° |
| 2026-05-05 14:02 | 11.63942 | 123.47612 | 26928 ft | 435 kts | 144° |
| 2026-05-05 14:02 | 11.57391 | 123.52450 | 26925 ft | 436 kts | 144° |
| 2026-05-05 14:03 | 11.54929 | 123.54268 | 26925 ft | 436 kts | 144° |
| 2026-05-05 14:03 | 11.52469 | 123.56085 | 26927 ft | 436 kts | 144° |
| 2026-05-05 14:03 | 11.50007 | 123.57901 | 26924 ft | 436 kts | 144° |
| 2026-05-05 14:03 | 11.47546 | 123.59717 | 26926 ft | 436 kts | 144° |
| 2026-05-05 14:04 | 11.45109 | 123.61515 | 26923 ft | 436 kts | 144° |
| 2026-05-05 14:04 | 11.42621 | 123.63350 | 26880 ft | 436 kts | 144° |
| 2026-05-05 14:04 | 11.40172 | 123.65155 | 26647 ft | 436 kts | 144° |
| 2026-05-05 14:04 | 11.37741 | 123.66947 | 26414 ft | 433 kts | 144° |
| 2026-05-05 14:05 | 11.35306 | 123.68742 | 26180 ft | 431 kts | 144° |
| 2026-05-05 14:05 | 11.32867 | 123.70538 | 25945 ft | 430 kts | 143° |
| 2026-05-05 14:05 | 11.30444 | 123.72323 | 25674 ft | 429 kts | 143° |
| 2026-05-05 14:05 | 11.28018 | 123.74110 | 25077 ft | 431 kts | 143° |
| 2026-05-05 14:06 | 11.25589 | 123.75899 | 24495 ft | 430 kts | 143° |
| 2026-05-05 14:06 | 11.23203 | 123.77655 | 23943 ft | 427 kts | 143° |
| 2026-05-05 14:06 | 11.20801 | 123.79422 | 23353 ft | 424 kts | 143° |
| 2026-05-05 14:06 | 11.18427 | 123.81168 | 22793 ft | 419 kts | 143° |
| 2026-05-05 14:07 | 11.15957 | 123.82670 | 22252 ft | 414 kts | 155° |
| 2026-05-05 14:07 | 11.13185 | 123.83512 | 21690 ft | 412 kts | 170° |
| 2026-05-05 14:07 | 11.10377 | 123.83598 | 21159 ft | 410 kts | 185° |
| 2026-05-05 14:07 | 11.07588 | 123.82985 | 20614 ft | 408 kts | 194° |
| 2026-05-05 14:08 | 11.02171 | 123.81338 | 19501 ft | 403 kts | 195° |
| 2026-05-05 14:08 | 10.99488 | 123.80540 | 18953 ft | 400 kts | 194° |
| 2026-05-05 14:08 | 10.96827 | 123.79772 | 18422 ft | 398 kts | 194° |
| 2026-05-05 14:09 | 10.94190 | 123.79027 | 17848 ft | 395 kts | 194° |
| 2026-05-05 14:09 | 10.91422 | 123.78252 | 17289 ft | 391 kts | 194° |
| 2026-05-05 14:09 | 10.88828 | 123.77529 | 16821 ft | 386 kts | 194° |
| 2026-05-05 14:09 | 10.86275 | 123.76818 | 16306 ft | 382 kts | 194° |
| 2026-05-05 14:10 | 10.83707 | 123.76103 | 15783 ft | 379 kts | 194° |
| 2026-05-05 14:10 | 10.81164 | 123.75395 | 15256 ft | 377 kts | 194° |
| 2026-05-05 14:10 | 10.78641 | 123.74692 | 14722 ft | 375 kts | 194° |
| 2026-05-05 14:10 | 10.76128 | 123.73992 | 14248 ft | 372 kts | 194° |
| 2026-05-05 14:11 | 10.73628 | 123.73296 | 13747 ft | 369 kts | 194° |
| 2026-05-05 14:11 | 10.71180 | 123.72614 | 13212 ft | 367 kts | 194° |
| 2026-05-05 14:11 | 10.68737 | 123.71933 | 12740 ft | 362 kts | 194° |
| 2026-05-05 14:11 | 10.66323 | 123.71260 | 12350 ft | 355 kts | 194° |
| 2026-05-05 14:12 | 10.63976 | 123.70606 | 11890 ft | 343 kts | 194° |
| 2026-05-05 14:12 | 10.61721 | 123.69978 | 11435 ft | 333 kts | 194° |
| 2026-05-05 14:12 | 10.59499 | 123.69358 | 10984 ft | 324 kts | 194° |
| 2026-05-05 14:12 | 10.57300 | 123.68747 | 10574 ft | 344 kts | 194° |
| 2026-05-05 14:13 | 10.54961 | 123.68098 | 10493 ft | 349 kts | 194° |
| 2026-05-05 14:13 | 10.52647 | 123.67454 | 10426 ft | 340 kts | 194° |
| 2026-05-05 14:13 | 10.50409 | 123.66829 | 10311 ft | 326 kts | 194° |
| 2026-05-05 14:13 | 10.48276 | 123.66233 | 10157 ft | 309 kts | 194° |
| 2026-05-05 14:14 | 10.46216 | 123.65659 | 9711 ft | 303 kts | 193° |
| 2026-05-05 14:14 | 10.44210 | 123.65102 | 9121 ft | 300 kts | 193° |
| 2026-05-05 14:14 | 10.42212 | 123.64547 | 8776 ft | 294 kts | 193° |
| 2026-05-05 14:14 | 10.40266 | 123.64006 | 8664 ft | 282 kts | 193° |
| 2026-05-05 14:15 | 10.38434 | 123.63495 | 8557 ft | 269 kts | 193° |
| 2026-05-05 14:15 | 10.36671 | 123.63004 | 8386 ft | 254 kts | 193° |
| 2026-05-05 14:15 | 10.34954 | 123.62837 | 7965 ft | 245 kts | 167° |
| 2026-05-05 14:15 | 10.33443 | 123.63518 | 7567 ft | 238 kts | 136° |
| 2026-05-05 14:16 | 10.32317 | 123.64670 | 7422 ft | 221 kts | 133° |
| 2026-05-05 14:16 | 10.31272 | 123.65747 | 7152 ft | 212 kts | 133° |
| 2026-05-05 14:16 | 10.30213 | 123.66826 | 6814 ft | 212 kts | 133° |
| 2026-05-05 14:16 | 10.29186 | 123.67867 | 6535 ft | 210 kts | 133° |
| 2026-05-05 14:17 | 10.28144 | 123.68923 | 6254 ft | 210 kts | 133° |
| 2026-05-05 14:17 | 10.27128 | 123.69955 | 5972 ft | 209 kts | 133° |
| 2026-05-05 14:17 | 10.26096 | 123.71004 | 5693 ft | 208 kts | 133° |
| 2026-05-05 14:17 | 10.25072 | 123.72045 | 5407 ft | 207 kts | 133° |
| 2026-05-05 14:18 | 10.24061 | 123.73072 | 5108 ft | 207 kts | 133° |
| 2026-05-05 14:18 | 10.23045 | 123.74104 | 4794 ft | 205 kts | 133° |
| 2026-05-05 14:18 | 10.22371 | 123.74787 | 4539 ft | 205 kts | 133° |
| 2026-05-05 14:18 | 10.21363 | 123.75809 | 4162 ft | 204 kts | 133° |
| 2026-05-05 14:19 | 10.20034 | 123.77158 | 3669 ft | 202 kts | 133° |
| 2026-05-05 14:19 | 10.19040 | 123.78166 | 3298 ft | 202 kts | 133° |
| 2026-05-05 14:19 | 10.18051 | 123.79170 | 2931 ft | 201 kts | 133° |
| 2026-05-05 14:19 | 10.17393 | 123.79838 | 2685 ft | 200 kts | 133° |
| 2026-05-05 14:20 | 10.16436 | 123.80830 | 2533 ft | 198 kts | 125° |
| 2026-05-05 14:20 | 10.15944 | 123.82114 | 2463 ft | 194 kts | 89° |
| 2026-05-05 14:20 | 10.16275 | 123.83361 | 2411 ft | 176 kts | 57° |
| 2026-05-05 14:20 | 10.17070 | 123.84200 | 2403 ft | 158 kts | 44° |
| 2026-05-05 14:21 | 10.17822 | 123.84929 | 2397 ft | 145 kts | 46° |
| 2026-05-05 14:21 | 10.18561 | 123.85678 | 2403 ft | 150 kts | 46° |
| 2026-05-05 14:21 | 10.19294 | 123.86422 | 2347 ft | 149 kts | 46° |
| 2026-05-05 14:21 | 10.20019 | 123.87157 | 2176 ft | 148 kts | 46° |
| 2026-05-05 14:22 | 10.20751 | 123.87897 | 2016 ft | 148 kts | 45° |
| 2026-05-05 14:22 | 10.21480 | 123.88630 | 1902 ft | 146 kts | 45° |
| 2026-05-05 14:22 | 10.22206 | 123.89360 | 1802 ft | 149 kts | 45° |
| 2026-05-05 14:22 | 10.22933 | 123.90088 | 1653 ft | 149 kts | 45° |
| 2026-05-05 14:23 | 10.23673 | 123.90831 | 1499 ft | 147 kts | 45° |
| 2026-05-05 14:23 | 10.24402 | 123.91559 | 1325 ft | 146 kts | 46° |
| 2026-05-05 14:23 | 10.25115 | 123.92276 | 1180 ft | 141 kts | 45° |
| 2026-05-05 14:23 | 10.25789 | 123.92952 | 1015 ft | 136 kts | 46° |
| 2026-05-05 14:24 | 10.26462 | 123.93628 | 881 ft | 135 kts | 45° |
| 2026-05-05 14:24 | 10.27117 | 123.94301 | 686 ft | 132 kts | 45° |
| 2026-05-05 14:24 | 10.27763 | 123.94959 | 502 ft | 133 kts | 44° |
| 2026-05-05 14:24 | 10.28408 | 123.95593 | 373 ft | 128 kts | 44° |
| 2026-05-05 14:25 | 10.29061 | 123.96252 | 210 ft | 130 kts | 43° |
| 2026-05-05 14:25 | 10.29706 | 123.96887 | 58 ft | 129 kts | 44° |
| 2026-05-05 14:25 | 10.30307 | 123.97485 | 36 ft | 101 kts | 45° |
| 2026-05-05 14:25 | 10.30664 | 123.97850 | 35 ft | 43 kts | 45° |
| 2026-05-05 14:26 | 10.30796 | 123.97985 | 35 ft | 24 kts | 45° |
| 2026-05-05 14:26 | 10.30922 | 123.98112 | 36 ft | 27 kts | 44° |
| 2026-05-05 14:26 | 10.31062 | 123.98244 | 36 ft | 28 kts | 37° |
| 2026-05-05 14:26 | 10.31231 | 123.98332 | 39 ft | 27 kts | 20° |
| 2026-05-05 14:27 | 10.31357 | 123.98345 | 37 ft | 16 kts | 340° |
| 2026-05-05 14:27 | 10.31444 | 123.98267 | 39 ft | 17 kts | 315° |
| 2026-05-05 14:27 | 10.31460 | 123.98252 | 39 ft | 0 kts | 316° |
| 2026-05-05 14:27 | 10.31461 | 123.98251 | 39 ft | 2 kts | 316° |
| 2026-05-05 14:28 | 10.31532 | 123.98180 | 39 ft | 22 kts | 309° |